M I D A S
Marine Information and Data Acquisition System
Tripno 893 of the Zeeleeuw from 2005-05-02 06:51:35 to 2005-05-02 15:58:21
Back to CruiseResearch ActivitiesStationsMapUnderway DataData graphs

EquipmentUnitsComment
TimeDGPSUTC
LatitudeDGPSDM.mWGS84
LongitudeDGPSDM.mWGS84
HeadingGyrodeg 
SOGDGPSknotsSpeed over ground
COGDGPSdegCourse over ground
DepthEcho soundermeters200 kHz
Missing or incorrect values are displayed as -999
Navigation data collected by the RV Zeeleeuw from 2005-05-02 06:00:26 to 2005-05-02 16:09:17
                                                                                    Next 1000 lines
Time Latitude Longitude Heading SOG COG Depth
2005-05-02 06:00:36 51°13.595 2°56.102 126.1 -999 122 9.2
2005-05-02 06:00:40 51°13.595 2°56.102 126.1 -999 186 9.2
2005-05-02 06:00:46 51°13.595 2°56.102 126.1 -999 178 9.2
2005-05-02 06:00:51 51°13.595 2°56.102 126.1 0.1 192 9.2
2005-05-02 06:00:56 51°13.595 2°56.102 126.1 -999 169 9.2
2005-05-02 06:01:00 51°13.595 2°56.102 126.1 -999 127 9.2
2005-05-02 06:01:06 51°13.595 2°56.102 126.1 -999 173 9.2
2005-05-02 06:01:11 51°13.594 2°56.102 126.1 -999 173 9.2
2005-05-02 06:01:16 51°13.594 2°56.102 126.1 -999 99 9.1
2005-05-02 06:01:20 51°13.594 2°56.102 126.1 -999 91 9.2
2005-05-02 06:01:26 51°13.594 2°56.102 126.1 -999 91 9.1
2005-05-02 06:01:31 51°13.594 2°56.102 126.1 -999 180 9.2
2005-05-02 06:01:36 51°13.594 2°56.102 126.1 -999 201 9.1
2005-05-02 06:01:40 51°13.594 2°56.101 126.1 -999 167 9.2
2005-05-02 06:01:46 51°13.594 2°56.101 126.1 -999 284 9.2
2005-05-02 06:01:51 51°13.594 2°56.101 126.1 -999 226 9.2
2005-05-02 06:01:56 51°13.594 2°56.101 126.1 -999 180 9.2
2005-05-02 06:02:01 51°13.594 2°56.101 126.1 -999 180 9.3
2005-05-02 06:02:06 51°13.594 2°56.101 126.1 -999 180 9.3
2005-05-02 06:02:11 51°13.594 2°56.101 126.1 -999 180 9.3
2005-05-02 06:02:15 51°13.594 2°56.101 126.1 -999 171 9.1
2005-05-02 06:02:20 51°13.594 2°56.101 126.1 -999 171 9.1
2005-05-02 06:02:26 51°13.594 2°56.101 126.1 -999 171 9.3
2005-05-02 06:02:31 51°13.594 2°56.101 126.1 -999 171 9.1
2005-05-02 06:02:36 51°13.594 2°56.101 126.1 -999 56 9.3
2005-05-02 06:02:40 51°13.594 2°56.102 126.1 -999 65 9.2
2005-05-02 06:02:46 51°13.594 2°56.102 126.1 -999 196 9.2
2005-05-02 06:02:51 51°13.594 2°56.102 126.1 -999 196 9.1
2005-05-02 06:02:55 51°13.594 2°56.102 126.1 -999 177 9.1
2005-05-02 06:03:01 51°13.594 2°56.102 126.1 -999 177 9.3
2005-05-02 06:03:05 51°13.594 2°56.102 126.1 -999 177 9.2
2005-05-02 06:03:11 51°13.594 2°56.102 126.1 -999 172 9.3
2005-05-02 06:03:16 51°13.594 2°56.102 126.1 -999 146 9.3
2005-05-02 06:03:21 51°13.594 2°56.102 126.1 -999 63 9.3
2005-05-02 06:03:25 51°13.594 2°56.102 126.1 -999 63 9.3
2005-05-02 06:03:31 51°13.594 2°56.102 126.1 -999 63 9.3
2005-05-02 06:03:36 51°13.594 2°56.102 126.1 -999 50 9.3
2005-05-02 06:03:40 51°13.594 2°56.102 126.1 -999 72 9.3
2005-05-02 06:03:46 51°13.594 2°56.102 126.1 0.1 61 9.3
2005-05-02 06:03:51 51°13.594 2°56.101 126.1 0.1 61 9.3
2005-05-02 06:03:56 51°13.594 2°56.101 126.2 -999 46 9.2
2005-05-02 06:04:01 51°13.594 2°56.101 126.2 -999 14 9.2
2005-05-02 06:04:06 51°13.594 2°56.101 126.2 -999 201 9.3
2005-05-02 06:04:11 51°13.594 2°56.102 126.2 -999 148 9.3
2005-05-02 06:04:16 51°13.594 2°56.102 126.2 -999 148 9.3
2005-05-02 06:04:20 51°13.594 2°56.102 126.2 -999 80 9.3
2005-05-02 06:04:26 51°13.594 2°56.102 126.2 -999 35 9.3
2005-05-02 06:04:31 51°13.594 2°56.102 126.2 -999 257 9.3
2005-05-02 06:04:36 51°13.594 2°56.101 126.2 -999 156 9.3
2005-05-02 06:04:41 51°13.594 2°56.101 126.2 -999 100 9.3
2005-05-02 06:04:46 51°13.594 2°56.101 126.2 -999 270 9.3
2005-05-02 06:04:51 51°13.594 2°56.101 126.2 -999 249 9.2
2005-05-02 06:04:56 51°13.594 2°56.101 126.2 -999 249 9.3
2005-05-02 06:05:00 51°13.594 2°56.1 126.2 -999 24 9.3
2005-05-02 06:05:06 51°13.594 2°56.1 126.2 -999 175 9.3
2005-05-02 06:05:11 51°13.594 2°56.1 126.2 -999 175 9.3
2005-05-02 06:05:16 51°13.594 2°56.1 126.2 -999 199 9.3
2005-05-02 06:05:21 51°13.594 2°56.1 126.2 -999 199 9.3
2005-05-02 06:05:26 51°13.594 2°56.101 126.2 -999 199 9.3
2005-05-02 06:05:31 51°13.594 2°56.101 126.2 -999 148 9.3
2005-05-02 06:05:35 51°13.594 2°56.101 126.2 -999 130 9.2
2005-05-02 06:05:41 51°13.594 2°56.101 126.2 -999 28 9.2
2005-05-02 06:05:46 51°13.594 2°56.101 126.2 -999 31 9.2
2005-05-02 06:05:51 51°13.594 2°56.101 126.2 -999 31 9.2
2005-05-02 06:05:55 51°13.594 2°56.101 126.2 -999 183 9.3
2005-05-02 06:06:01 51°13.594 2°56.101 126.2 -999 183 9.3
2005-05-02 06:06:07 51°13.594 2°56.101 126.2 -999 181 9.3
2005-05-02 06:06:11 51°13.595 2°56.102 126.2 -999 99 9.3
2005-05-02 06:06:17 51°13.595 2°56.102 126.2 -999 154 9.3
2005-05-02 06:06:21 51°13.595 2°56.102 126.2 0.1 66 9.3
2005-05-02 06:06:27 51°13.595 2°56.102 126.2 -999 322 9.3
2005-05-02 06:06:31 51°13.595 2°56.102 126.2 -999 9 9.3
2005-05-02 06:06:36 51°13.595 2°56.102 126.3 -999 9 9.3
2005-05-02 06:06:41 51°13.595 2°56.102 126.3 -999 9 9.3
2005-05-02 06:06:47 51°13.595 2°56.102 126.3 -999 25 9.3
2005-05-02 06:06:51 51°13.595 2°56.102 126.2 -999 25 9.3
2005-05-02 06:06:56 51°13.595 2°56.102 126.2 -999 205 9.3
2005-05-02 06:07:01 51°13.595 2°56.102 126.2 -999 205 9.3
2005-05-02 06:07:06 51°13.595 2°56.102 126.2 -999 330 9.3
2005-05-02 06:07:11 51°13.595 2°56.102 126.2 -999 245 9.3
2005-05-02 06:07:16 51°13.595 2°56.102 126.2 -999 245 9.2
2005-05-02 06:07:21 51°13.595 2°56.102 126.3 -999 245 9.3
2005-05-02 06:07:26 51°13.595 2°56.102 126.3 -999 356 9.3
2005-05-02 06:07:31 51°13.595 2°56.102 126.3 -999 356 9.3
2005-05-02 06:07:37 51°13.595 2°56.102 126.3 -999 356 9.3
2005-05-02 06:07:41 51°13.595 2°56.102 126.3 -999 135 9.3
2005-05-02 06:07:46 51°13.595 2°56.102 126.3 -999 135 9.3
2005-05-02 06:07:51 51°13.596 2°56.103 126.3 -999 267 9.3
2005-05-02 06:07:55 51°13.596 2°56.103 126.3 -999 267 9.3
2005-05-02 06:08:01 51°13.596 2°56.103 126.3 -999 267 9.3
2005-05-02 06:08:06 51°13.596 2°56.103 126.3 -999 42 9.3
2005-05-02 06:08:11 51°13.596 2°56.103 126.3 -999 42 9.3
2005-05-02 06:08:16 51°13.596 2°56.103 126.3 -999 220 9.3
2005-05-02 06:08:21 51°13.596 2°56.103 126.3 -999 47 9.3
2005-05-02 06:08:27 51°13.596 2°56.103 126.3 -999 59 9.4
2005-05-02 06:08:31 51°13.596 2°56.103 126.3 -999 59 9.3
2005-05-02 06:08:37 51°13.596 2°56.103 126.3 -999 59 9.3
2005-05-02 06:08:41 51°13.596 2°56.103 126.3 -999 36 9.5
2005-05-02 06:08:47 51°13.596 2°56.103 126.3 -999 57 9.4
2005-05-02 06:08:51 51°13.596 2°56.103 126.3 -999 74 9.3
2005-05-02 06:08:56 51°13.596 2°56.103 126.3 -999 74 9.3
2005-05-02 06:09:01 51°13.596 2°56.103 126.3 -999 34 9.3
2005-05-02 06:09:07 51°13.596 2°56.103 126.3 -999 34 9.4
2005-05-02 06:09:11 51°13.596 2°56.102 126.3 -999 34 9.3
2005-05-02 06:09:16 51°13.596 2°56.102 126.3 -999 34 9.4
2005-05-02 06:09:21 51°13.596 2°56.102 126.3 -999 34 9.3
2005-05-02 06:09:27 51°13.596 2°56.102 126.3 -999 143 9.5
2005-05-02 06:09:31 51°13.596 2°56.102 126.3 -999 122 9.5
2005-05-02 06:09:36 51°13.596 2°56.102 126.3 -999 122 9.3
2005-05-02 06:09:41 51°13.596 2°56.102 126.3 -999 122 9.3
2005-05-02 06:09:46 51°13.596 2°56.102 126.4 -999 122 9.5
2005-05-02 06:09:51 51°13.596 2°56.102 126.4 -999 122 9.5
2005-05-02 06:09:57 51°13.595 2°56.101 126.4 -999 213 9.3
2005-05-02 06:10:01 51°13.595 2°56.101 126.4 -999 251 9.3
2005-05-02 06:10:07 51°13.595 2°56.101 126.4 -999 265 9.3
2005-05-02 06:10:11 51°13.595 2°56.101 126.4 -999 265 9.5
2005-05-02 06:10:17 51°13.595 2°56.101 126.4 -999 240 9.4
2005-05-02 06:10:21 51°13.595 2°56.101 126.4 -999 121 9.4
2005-05-02 06:10:27 51°13.595 2°56.101 126.4 -999 39 9.3
2005-05-02 06:10:31 51°13.595 2°56.101 126.4 -999 352 9.3
2005-05-02 06:10:37 51°13.595 2°56.101 126.4 -999 315 9.3
2005-05-02 06:10:41 51°13.595 2°56.101 126.4 -999 315 9.4
2005-05-02 06:10:46 51°13.595 2°56.101 126.4 -999 298 9.3
2005-05-02 06:10:51 51°13.595 2°56.101 126.4 -999 298 9.3
2005-05-02 06:10:57 51°13.595 2°56.101 126.4 -999 356 9.3
2005-05-02 06:11:01 51°13.595 2°56.101 126.4 -999 356 9.4
2005-05-02 06:11:07 51°13.595 2°56.101 126.4 -999 294 9.5
2005-05-02 06:11:11 51°13.595 2°56.101 126.4 -999 253 9.4
2005-05-02 06:11:16 51°13.595 2°56.101 126.4 -999 253 9.5
2005-05-02 06:11:21 51°13.595 2°56.101 126.4 -999 92 9.5
2005-05-02 06:11:26 51°13.595 2°56.101 126.4 -999 92 9.3
2005-05-02 06:11:31 51°13.595 2°56.102 126.4 -999 92 9.3
2005-05-02 06:11:36 51°13.595 2°56.101 126.4 0.1 44 9.2
2005-05-02 06:11:41 51°13.595 2°56.101 126.4 0.1 44 9.3
2005-05-02 06:11:47 51°13.595 2°56.101 126.4 -999 119 9.3
2005-05-02 06:11:51 51°13.595 2°56.101 126.4 -999 119 9.3
2005-05-02 06:11:57 51°13.595 2°56.101 126.4 -999 174 9.2
2005-05-02 06:12:01 51°13.594 2°56.101 126.4 -999 174 9.3
2005-05-02 06:12:06 51°13.595 2°56.101 126.4 -999 305 9.2
2005-05-02 06:12:11 51°13.594 2°56.101 126.4 -999 305 9.3
2005-05-02 06:12:17 51°13.594 2°56.101 126.4 -999 305 9.2
2005-05-02 06:12:21 51°13.594 2°56.101 126.4 -999 252 9.2
2005-05-02 06:12:26 51°13.594 2°56.101 126.4 -999 226 9.2
2005-05-02 06:12:31 51°13.595 2°56.101 126.4 -999 226 9.2
2005-05-02 06:12:36 51°13.595 2°56.101 126.4 -999 310 9.2
2005-05-02 06:12:41 51°13.595 2°56.101 126.4 -999 310 9.3
2005-05-02 06:12:46 51°13.595 2°56.101 126.4 -999 309 9.2
2005-05-02 06:12:51 51°13.595 2°56.101 126.4 -999 269 9.2
2005-05-02 06:12:55 51°13.595 2°56.102 126.4 -999 269 9.2
2005-05-02 06:13:01 51°13.594 2°56.102 126.4 -999 29 9.2
2005-05-02 06:13:06 51°13.594 2°56.102 126.4 -999 29 9.2
2005-05-02 06:13:11 51°13.594 2°56.102 126.4 -999 29 9.2
2005-05-02 06:13:15 51°13.594 2°56.102 126.4 -999 29 9.2
2005-05-02 06:13:21 51°13.594 2°56.102 126.4 -999 238 9.2
2005-05-02 06:13:26 51°13.594 2°56.102 126.4 -999 97 9.3
2005-05-02 06:13:31 51°13.595 2°56.102 126.4 -999 97 9.3
2005-05-02 06:13:37 51°13.595 2°56.102 126.4 0.1 34 9.2
2005-05-02 06:13:41 51°13.595 2°56.102 126.4 0.1 34 9.2
2005-05-02 06:13:47 51°13.595 2°56.102 126.4 -999 32 9.3
2005-05-02 06:13:51 51°13.595 2°56.102 126.4 0.1 14 9.3
2005-05-02 06:13:56 51°13.595 2°56.102 126.4 -999 339 9.2
2005-05-02 06:14:01 51°13.595 2°56.102 126.4 -999 339 9.2
2005-05-02 06:14:06 51°13.595 2°56.102 126.4 -999 339 9.2
2005-05-02 06:14:11 51°13.595 2°56.102 126.4 -999 329 9.3
2005-05-02 06:14:17 51°13.594 2°56.102 126.4 -999 329 9.2
2005-05-02 06:14:21 51°13.595 2°56.102 126.4 -999 329 9.3
2005-05-02 06:14:26 51°13.595 2°56.102 126.4 -999 37 9.3
2005-05-02 06:14:31 51°13.595 2°56.102 126.4 -999 25 9.3
2005-05-02 06:14:36 51°13.595 2°56.102 126.4 -999 233 9.2
2005-05-02 06:14:41 51°13.595 2°56.102 126.4 -999 233 9.3
2005-05-02 06:14:46 51°13.595 2°56.102 126.4 -999 21 9.3
2005-05-02 06:14:51 51°13.595 2°56.102 126.4 -999 21 9.3
2005-05-02 06:14:57 51°13.595 2°56.102 126.4 -999 37 9.3
2005-05-02 06:15:01 51°13.595 2°56.102 126.4 -999 37 9.3
2005-05-02 06:15:07 51°13.595 2°56.102 126.4 -999 36 9.3
2005-05-02 06:15:11 51°13.594 2°56.102 126.4 -999 36 9.2
2005-05-02 06:15:17 51°13.594 2°56.102 126.4 -999 337 9.2
2005-05-02 06:15:21 51°13.594 2°56.102 126.4 -999 337 9.2
2005-05-02 06:15:27 51°13.594 2°56.102 126.4 -999 195 9.2
2005-05-02 06:15:31 51°13.595 2°56.102 126.4 -999 108 9.2
2005-05-02 06:15:37 51°13.595 2°56.102 126.4 -999 108 9.5
2005-05-02 06:15:41 51°13.595 2°56.102 126.4 -999 354 9.2
2005-05-02 06:15:47 51°13.595 2°56.103 126.4 -999 222 9.5
2005-05-02 06:15:51 51°13.595 2°56.103 126.4 -999 40 9.2
2005-05-02 06:15:57 51°13.595 2°56.103 126.4 -999 40 9.3
2005-05-02 06:16:01 51°13.595 2°56.103 126.4 -999 10 9.2
2005-05-02 06:16:07 51°13.595 2°56.103 126.5 -999 40 9.3
2005-05-02 06:16:11 51°13.595 2°56.103 126.5 -999 40 9.3
2005-05-02 06:16:17 51°13.595 2°56.103 126.5 -999 40 9.3
2005-05-02 06:16:21 51°13.595 2°56.103 126.5 -999 44 9.3
2005-05-02 06:16:27 51°13.595 2°56.102 126.5 -999 8 9.3
2005-05-02 06:16:31 51°13.595 2°56.102 126.6 -999 354 9.3
2005-05-02 06:16:36 51°13.595 2°56.102 126.6 -999 354 9.3
2005-05-02 06:16:41 51°13.595 2°56.102 126.6 -999 354 9.3
2005-05-02 06:16:46 51°13.595 2°56.102 126.6 -999 274 9.3
2005-05-02 06:16:51 51°13.595 2°56.102 126.6 -999 274 9.3
2005-05-02 06:16:57 51°13.595 2°56.102 126.6 -999 348 9.3
2005-05-02 06:17:01 51°13.595 2°56.102 126.6 -999 70 9.2
2005-05-02 06:17:06 51°13.595 2°56.102 126.6 -999 70 9.2
2005-05-02 06:17:11 51°13.595 2°56.102 126.6 -999 70 9.2
2005-05-02 06:17:17 51°13.595 2°56.102 126.6 -999 318 9.2
2005-05-02 06:17:21 51°13.595 2°56.103 126.6 -999 318 9.3
2005-05-02 06:17:26 51°13.595 2°56.103 126.6 -999 318 9.2
2005-05-02 06:17:31 51°13.595 2°56.103 126.6 -999 14 9.3
2005-05-02 06:17:36 51°13.595 2°56.103 126.6 -999 306 9.3
2005-05-02 06:17:41 51°13.595 2°56.103 126.6 -999 155 9.3
2005-05-02 06:17:46 51°13.595 2°56.103 126.6 -999 289 9.3
2005-05-02 06:17:51 51°13.595 2°56.103 126.6 -999 150 9.3
2005-05-02 06:17:56 51°13.595 2°56.103 126.6 -999 150 9.3
2005-05-02 06:18:01 51°13.595 2°56.103 126.6 -999 150 9.2
2005-05-02 06:18:07 51°13.595 2°56.103 126.6 -999 223 9.2
2005-05-02 06:18:11 51°13.595 2°56.103 126.6 -999 223 9.3
2005-05-02 06:18:16 51°13.595 2°56.103 126.6 -999 223 9.3
2005-05-02 06:18:21 51°13.595 2°56.103 126.6 -999 223 9.3
2005-05-02 06:18:27 51°13.595 2°56.103 126.6 -999 223 9.3
2005-05-02 06:18:31 51°13.595 2°56.103 126.6 -999 210 9.3
2005-05-02 06:18:36 51°13.595 2°56.103 126.6 -999 210 9.3
2005-05-02 06:18:41 51°13.595 2°56.103 126.6 -999 210 9.2
2005-05-02 06:18:46 51°13.595 2°56.103 126.6 -999 30 9.3
2005-05-02 06:18:52 51°13.595 2°56.103 126.6 -999 40 9.3
2005-05-02 06:18:56 51°13.595 2°56.103 126.6 -999 40 9.2
2005-05-02 06:19:01 51°13.595 2°56.103 126.6 -999 69 9.3
2005-05-02 06:19:06 51°13.595 2°56.103 126.6 -999 69 9.3
2005-05-02 06:19:11 51°13.595 2°56.103 126.6 -999 31 9.3
2005-05-02 06:19:16 51°13.595 2°56.103 126.6 -999 31 9.3
2005-05-02 06:19:21 51°13.595 2°56.103 126.6 -999 160 9.2
2005-05-02 06:19:26 51°13.595 2°56.103 126.6 -999 160 9.3
2005-05-02 06:19:31 51°13.595 2°56.103 126.6 -999 160 9.2
2005-05-02 06:19:36 51°13.595 2°56.103 126.6 -999 50 9.3
2005-05-02 06:19:41 51°13.595 2°56.103 126.6 -999 50 9.3
2005-05-02 06:19:46 51°13.595 2°56.103 126.6 -999 50 9.3
2005-05-02 06:19:51 51°13.596 2°56.103 126.6 -999 50 9.3
2005-05-02 06:19:57 51°13.595 2°56.103 126.6 -999 28 9.3
2005-05-02 06:20:01 51°13.595 2°56.103 126.6 -999 28 9.3
2005-05-02 06:20:07 51°13.595 2°56.103 126.6 -999 20 9.3
2005-05-02 06:20:11 51°13.595 2°56.103 126.6 -999 20 9.3
2005-05-02 06:20:16 51°13.595 2°56.103 126.6 -999 357 9.3
2005-05-02 06:20:21 51°13.595 2°56.103 126.6 -999 307 9.3
2005-05-02 06:20:26 51°13.595 2°56.103 126.7 -999 354 9.3
2005-05-02 06:20:31 51°13.595 2°56.103 126.7 -999 354 9.3
2005-05-02 06:20:36 51°13.595 2°56.103 126.7 -999 354 9.3
2005-05-02 06:20:41 51°13.595 2°56.103 126.7 -999 112 9.3
2005-05-02 06:20:47 51°13.596 2°56.103 126.7 -999 112 9.5
2005-05-02 06:20:51 51°13.596 2°56.103 126.7 -999 35 9.3
2005-05-02 06:20:57 51°13.595 2°56.103 126.8 -999 35 9.3
2005-05-02 06:21:01 51°13.595 2°56.103 126.8 -999 40 9.3
2005-05-02 06:21:06 51°13.595 2°56.103 126.8 -999 40 9.3
2005-05-02 06:21:11 51°13.595 2°56.103 126.8 -999 40 9.2
2005-05-02 06:21:16 51°13.595 2°56.103 126.8 -999 42 9.2
2005-05-02 06:21:21 51°13.595 2°56.103 126.8 -999 42 9.2
2005-05-02 06:21:26 51°13.595 2°56.103 126.8 -999 93 9.3
2005-05-02 06:21:31 51°13.595 2°56.103 126.8 -999 93 9.3
2005-05-02 06:21:37 51°13.595 2°56.103 126.8 -999 339 9.3
2005-05-02 06:21:41 51°13.595 2°56.103 126.8 -999 339 9.3
2005-05-02 06:21:46 51°13.595 2°56.103 126.8 -999 339 9.2
2005-05-02 06:21:51 51°13.595 2°56.103 126.8 -999 137 9.3
2005-05-02 06:21:56 51°13.595 2°56.103 126.8 0.1 212 9.3
2005-05-02 06:22:01 51°13.595 2°56.103 126.8 0.1 212 9.3
2005-05-02 06:22:07 51°13.595 2°56.103 126.8 -999 32 9.3
2005-05-02 06:22:11 51°13.595 2°56.103 126.8 -999 48 9.3
2005-05-02 06:22:16 51°13.595 2°56.103 126.8 -999 48 9.3
2005-05-02 06:22:21 51°13.595 2°56.103 126.8 -999 48 9.3
2005-05-02 06:22:27 51°13.595 2°56.103 126.8 -999 110 9.3
2005-05-02 06:22:31 51°13.595 2°56.103 126.8 -999 348 9.2
2005-05-02 06:22:36 51°13.595 2°56.103 126.8 -999 348 9.3
2005-05-02 06:22:41 51°13.595 2°56.103 126.8 -999 252 9.2
2005-05-02 06:22:46 51°13.595 2°56.103 126.8 -999 216 9.2
2005-05-02 06:22:51 51°13.595 2°56.103 126.8 -999 216 9.2
2005-05-02 06:22:56 51°13.595 2°56.103 126.8 -999 347 9.3
2005-05-02 06:23:01 51°13.595 2°56.103 126.8 -999 347 9.2
2005-05-02 06:23:07 51°13.595 2°56.103 126.8 -999 347 9.3
2005-05-02 06:23:11 51°13.595 2°56.103 126.8 -999 193 9.3
2005-05-02 06:23:16 51°13.595 2°56.103 126.8 -999 98 9.2
2005-05-02 06:23:21 51°13.595 2°56.103 126.8 -999 98 9.3
2005-05-02 06:23:25 51°13.596 2°56.103 126.8 -999 348 9.3
2005-05-02 06:23:32 51°13.596 2°56.103 126.8 -999 348 9.3
2005-05-02 06:23:36 51°13.595 2°56.103 126.8 -999 218 9.3
2005-05-02 06:23:41 51°13.596 2°56.103 126.8 -999 32 9.3
2005-05-02 06:23:46 51°13.596 2°56.103 126.8 -999 61 9.3
2005-05-02 06:23:51 51°13.595 2°56.103 126.8 -999 61 9.3
2005-05-02 06:23:56 51°13.595 2°56.103 126.8 0.1 202 9.3
2005-05-02 06:24:01 51°13.595 2°56.103 126.8 -999 194 9.3
2005-05-02 06:24:07 51°13.595 2°56.103 126.8 -999 266 9.3
2005-05-02 06:24:11 51°13.595 2°56.103 126.8 -999 266 9.3
2005-05-02 06:24:16 51°13.595 2°56.103 126.8 -999 227 9.3
2005-05-02 06:24:21 51°13.595 2°56.103 126.8 -999 227 9.3
2005-05-02 06:24:26 51°13.595 2°56.103 126.8 -999 227 9.3
2005-05-02 06:24:31 51°13.595 2°56.103 126.8 -999 227 9.3
2005-05-02 06:24:36 51°13.595 2°56.103 126.8 -999 317 9.3
2005-05-02 06:24:41 51°13.595 2°56.103 126.8 -999 317 9.3
2005-05-02 06:24:47 51°13.595 2°56.103 126.8 -999 317 9.3
2005-05-02 06:24:51 51°13.595 2°56.103 126.8 -999 317 9.3
2005-05-02 06:24:56 51°13.595 2°56.103 126.8 -999 39 9.3
2005-05-02 06:25:01 51°13.595 2°56.103 126.8 -999 39 9.3
2005-05-02 06:25:07 51°13.595 2°56.103 126.8 -999 36 9.3
2005-05-02 06:25:11 51°13.595 2°56.103 126.8 -999 36 9.3
2005-05-02 06:25:16 51°13.595 2°56.103 126.8 -999 213 9.3
2005-05-02 06:25:21 51°13.595 2°56.103 126.8 -999 213 9.3
2005-05-02 06:25:27 51°13.595 2°56.103 126.8 -999 185 9.3
2005-05-02 06:25:31 51°13.595 2°56.103 126.8 -999 185 9.3
2005-05-02 06:25:36 51°13.595 2°56.103 126.8 -999 332 9.3
2005-05-02 06:25:41 51°13.595 2°56.103 126.8 -999 214 9.3
2005-05-02 06:25:47 51°13.595 2°56.103 126.8 -999 223 9.3
2005-05-02 06:25:51 51°13.594 2°56.103 126.8 -999 223 9.3
2005-05-02 06:25:56 51°13.594 2°56.103 126.8 -999 223 9.3
2005-05-02 06:26:01 51°13.594 2°56.103 126.8 -999 223 9.3
2005-05-02 06:26:06 51°13.595 2°56.103 126.8 -999 167 9.3
2005-05-02 06:26:12 51°13.595 2°56.103 126.8 -999 167 9.3
2005-05-02 06:26:16 51°13.595 2°56.103 126.8 -999 162 9.3
2005-05-02 06:26:21 51°13.595 2°56.103 126.8 -999 162 9.3
2005-05-02 06:26:26 51°13.595 2°56.103 126.8 -999 56 9.3
2005-05-02 06:26:31 51°13.595 2°56.103 126.8 -999 56 9.3
2005-05-02 06:26:37 51°13.595 2°56.103 126.8 -999 56 9.3
2005-05-02 06:26:41 51°13.595 2°56.103 126.8 -999 56 9.3
2005-05-02 06:26:47 51°13.595 2°56.103 126.8 -999 251 9.3
2005-05-02 06:26:51 51°13.594 2°56.103 126.9 -999 77 9.3
2005-05-02 06:26:56 51°13.594 2°56.103 126.9 -999 77 9.3
2005-05-02 06:27:01 51°13.594 2°56.103 126.9 -999 216 9.3
2005-05-02 06:27:07 51°13.594 2°56.103 126.9 -999 216 9.3
2005-05-02 06:27:11 51°13.595 2°56.103 126.9 -999 216 9.3
2005-05-02 06:27:16 51°13.595 2°56.103 126.9 -999 222 9.3
2005-05-02 06:27:21 51°13.595 2°56.103 126.9 -999 213 9.3
2005-05-02 06:27:27 51°13.595 2°56.103 126.9 -999 213 9.3
2005-05-02 06:27:31 51°13.595 2°56.103 126.9 0.1 25 9.3
2005-05-02 06:27:36 51°13.595 2°56.103 126.9 0.1 25 9.3
2005-05-02 06:27:41 51°13.595 2°56.103 126.9 0.1 25 9.2
2005-05-02 06:27:47 51°13.595 2°56.104 126.9 -999 208 9.3
2005-05-02 06:27:51 51°13.595 2°56.104 126.9 -999 212 9.4
2005-05-02 06:27:56 51°13.595 2°56.104 126.9 -999 212 9.3
2005-05-02 06:28:01 51°13.595 2°56.104 126.9 -999 212 9.3
2005-05-02 06:28:06 51°13.595 2°56.104 126.9 -999 49 9.3
2005-05-02 06:28:11 51°13.596 2°56.104 126.9 -999 49 9.3
2005-05-02 06:28:17 51°13.596 2°56.104 126.9 -999 49 9.3
2005-05-02 06:28:21 51°13.596 2°56.104 126.9 -999 49 9.3
2005-05-02 06:28:26 51°13.596 2°56.104 126.9 -999 221 9.3
2005-05-02 06:28:31 51°13.596 2°56.104 126.9 -999 232 9.3
2005-05-02 06:28:37 51°13.596 2°56.104 126.9 -999 232 9.4
2005-05-02 06:28:41 51°13.596 2°56.104 126.9 -999 29 9.3
2005-05-02 06:28:47 51°13.596 2°56.104 126.9 -999 43 9.3
2005-05-02 06:28:51 51°13.596 2°56.104 126.9 -999 97 9.3
2005-05-02 06:28:57 51°13.596 2°56.104 126.9 -999 97 9.3
2005-05-02 06:29:01 51°13.596 2°56.104 126.9 -999 27 9.3
2005-05-02 06:29:07 51°13.596 2°56.104 126.9 -999 211 9.3
2005-05-02 06:29:11 51°13.595 2°56.104 126.9 -999 56 9.3
2005-05-02 06:29:17 51°13.596 2°56.104 126.9 -999 56 9.3
2005-05-02 06:29:21 51°13.596 2°56.104 126.9 -999 323 9.3
2005-05-02 06:29:27 51°13.596 2°56.104 126.9 -999 52 9.3
2005-05-02 06:29:31 51°13.596 2°56.104 126.9 -999 8 9.4
2005-05-02 06:29:35 51°13.596 2°56.104 126.9 -999 8 9.3
2005-05-02 06:29:41 51°13.596 2°56.104 126.9 -999 245 9.3
2005-05-02 06:29:47 51°13.596 2°56.104 126.9 -999 267 9.3
2005-05-02 06:29:51 51°13.596 2°56.104 126.9 -999 18 9.3
2005-05-02 06:29:55 51°13.595 2°56.104 126.9 -999 63 9.3
2005-05-02 06:30:01 51°13.595 2°56.104 126.9 -999 63 9.3
2005-05-02 06:30:07 51°13.595 2°56.104 126.9 -999 63 9.3
2005-05-02 06:30:11 51°13.595 2°56.104 126.9 -999 63 9.3
2005-05-02 06:30:17 51°13.595 2°56.104 126.9 -999 324 9.3
2005-05-02 06:30:21 51°13.595 2°56.104 127 -999 268 9.3
2005-05-02 06:30:27 51°13.595 2°56.103 127 -999 283 9.3
2005-05-02 06:30:31 51°13.595 2°56.103 127 -999 224 9.3
2005-05-02 06:30:37 51°13.595 2°56.103 127 -999 202 9.3
2005-05-02 06:30:41 51°13.595 2°56.103 127 -999 202 9.3
2005-05-02 06:30:46 51°13.595 2°56.104 127 -999 228 9.3
2005-05-02 06:30:51 51°13.595 2°56.104 126.9 -999 237 9.3
2005-05-02 06:30:56 51°13.595 2°56.104 126.9 -999 237 9.2
2005-05-02 06:31:01 51°13.595 2°56.104 126.9 -999 237 9.3
2005-05-02 06:31:05 51°13.595 2°56.104 127 -999 30 9.3
2005-05-02 06:31:11 51°13.595 2°56.104 127 -999 4 9.3
2005-05-02 06:31:17 51°13.595 2°56.104 127 -999 2 9.3
2005-05-02 06:31:21 51°13.595 2°56.104 127 -999 216 9.3
2005-05-02 06:31:27 51°13.595 2°56.104 127 -999 244 9.3
2005-05-02 06:31:31 51°13.595 2°56.103 127 -999 112 9.3
2005-05-02 06:31:36 51°13.595 2°56.103 127 -999 337 9.3
2005-05-02 06:31:41 51°13.595 2°56.103 127 -999 337 9.3
2005-05-02 06:31:46 51°13.595 2°56.103 127 -999 337 9.3
2005-05-02 06:31:51 51°13.595 2°56.103 127 -999 215 9.3
2005-05-02 06:31:56 51°13.595 2°56.103 127 -999 15 9.3
2005-05-02 06:32:01 51°13.595 2°56.103 127 -999 53 9.3
2005-05-02 06:32:06 51°13.595 2°56.103 127 -999 30 9.3
2005-05-02 06:32:11 51°13.595 2°56.103 127 -999 30 9.3
2005-05-02 06:32:16 51°13.595 2°56.103 127 -999 185 9.3
2005-05-02 06:32:21 51°13.595 2°56.103 127 -999 185 9.3
2005-05-02 06:32:27 51°13.595 2°56.103 127 -999 29 9.3
2005-05-02 06:32:32 51°13.595 2°56.103 127 -999 29 9.3
2005-05-02 06:32:37 51°13.595 2°56.103 127 -999 178 9.3
2005-05-02 06:32:41 51°13.595 2°56.103 127 -999 178 9.2
2005-05-02 06:32:46 51°13.595 2°56.102 127 -999 178 9.3
2005-05-02 06:32:51 51°13.595 2°56.103 127 -999 178 9.2
2005-05-02 06:32:56 51°13.595 2°56.103 127 -999 153 9.3
2005-05-02 06:33:01 51°13.594 2°56.103 127.1 -999 153 9.3
2005-05-02 06:33:06 51°13.594 2°56.103 127.1 -999 153 9.3
2005-05-02 06:33:11 51°13.594 2°56.103 127.1 -999 211 9.3
2005-05-02 06:33:15 51°13.594 2°56.103 127.1 -999 15 9.3
2005-05-02 06:33:21 51°13.594 2°56.103 127.1 -999 15 9.2
2005-05-02 06:33:26 51°13.594 2°56.103 127.1 -999 26 9.3
2005-05-02 06:33:31 51°13.594 2°56.103 127.1 -999 31 9.3
2005-05-02 06:33:35 51°13.594 2°56.103 127.1 -999 70 9.2
2005-05-02 06:33:41 51°13.594 2°56.103 127 -999 70 9.3
2005-05-02 06:33:47 51°13.594 2°56.103 127 0.1 199 9.2
2005-05-02 06:33:51 51°13.594 2°56.103 127 -999 221 9.3
2005-05-02 06:33:56 51°13.594 2°56.103 127 -999 249 9.3
2005-05-02 06:34:01 51°13.594 2°56.103 127 -999 43 9.2
2005-05-02 06:34:07 51°13.594 2°56.103 127 -999 187 9.2
2005-05-02 06:34:11 51°13.594 2°56.103 127 -999 187 9.3
2005-05-02 06:34:17 51°13.594 2°56.103 127 -999 187 9.3
2005-05-02 06:34:21 51°13.594 2°56.103 127 -999 103 9.3
2005-05-02 06:34:26 51°13.594 2°56.103 127 -999 206 9.3
2005-05-02 06:34:31 51°13.594 2°56.103 127 -999 193 9.2
2005-05-02 06:34:37 51°13.594 2°56.103 127 -999 190 9.3
2005-05-02 06:34:41 51°13.594 2°56.103 127 -999 226 9.2
2005-05-02 06:34:47 51°13.594 2°56.103 127 -999 253 9.3
2005-05-02 06:34:51 51°13.594 2°56.103 127 -999 253 9.3
2005-05-02 06:34:57 51°13.594 2°56.103 127 0.1 39 9.3
2005-05-02 06:35:01 51°13.594 2°56.103 127 0.1 39 9.2
2005-05-02 06:35:07 51°13.594 2°56.103 127 -999 129 9.3
2005-05-02 06:35:11 51°13.594 2°56.103 127 -999 53 9.3
2005-05-02 06:35:17 51°13.594 2°56.103 127 -999 320 9.2
2005-05-02 06:35:21 51°13.594 2°56.102 126.8 -999 267 9.2
2005-05-02 06:35:26 51°13.594 2°56.102 126.8 -999 267 9.3
2005-05-02 06:35:31 51°13.594 2°56.102 126.8 -999 267 9.3
2005-05-02 06:35:36 51°13.594 2°56.102 126.9 -999 321 9.3
2005-05-02 06:35:41 51°13.594 2°56.102 126.9 -999 321 9.2
2005-05-02 06:35:46 51°13.594 2°56.102 126.9 -999 321 9.3
2005-05-02 06:35:51 51°13.594 2°56.102 126.9 -999 321 9.3
2005-05-02 06:35:56 51°13.594 2°56.102 126.9 -999 336 9.3
2005-05-02 06:36:01 51°13.594 2°56.102 126.9 -999 336 9.3
2005-05-02 06:36:06 51°13.594 2°56.102 126.9 -999 336 9.3
2005-05-02 06:36:12 51°13.594 2°56.102 126.9 -999 134 9.2
2005-05-02 06:36:16 51°13.594 2°56.102 126.9 -999 174 9.3
2005-05-02 06:36:21 51°13.594 2°56.102 126.9 -999 223 9.3
2005-05-02 06:36:27 51°13.595 2°56.102 126.9 -999 250 9.3
2005-05-02 06:36:31 51°13.595 2°56.102 126.9 -999 196 9.2
2005-05-02 06:36:35 51°13.595 2°56.102 126.9 -999 18 9.3
2005-05-02 06:36:41 51°13.595 2°56.103 126.9 -999 18 9.3
2005-05-02 06:36:47 51°13.595 2°56.103 126.9 -999 199 9.3
2005-05-02 06:36:51 51°13.595 2°56.103 126.8 -999 330 9.3
2005-05-02 06:36:55 51°13.595 2°56.103 126.8 -999 280 9.2
2005-05-02 06:37:01 51°13.595 2°56.103 126.9 -999 280 9.3
2005-05-02 06:37:07 51°13.595 2°56.102 126.9 -999 280 9.3
2005-05-02 06:37:11 51°13.595 2°56.102 126.9 -999 280 9.3
2005-05-02 06:37:16 51°13.595 2°56.102 126.9 -999 280 9.3
2005-05-02 06:37:21 51°13.595 2°56.102 126.9 -999 22 9.3
2005-05-02 06:37:26 51°13.595 2°56.102 126.9 -999 24 9.3
2005-05-02 06:37:31 51°13.595 2°56.102 126.9 -999 223 9.3
2005-05-02 06:37:35 51°13.595 2°56.102 126.9 -999 223 9.3
2005-05-02 06:37:41 51°13.595 2°56.102 126.9 -999 223 9.3
2005-05-02 06:37:46 51°13.595 2°56.102 126.9 -999 28 9.3
2005-05-02 06:37:51 51°13.595 2°56.102 126.9 0.1 213 9.3
2005-05-02 06:37:57 51°13.595 2°56.102 126.8 -999 210 9.3
2005-05-02 06:38:01 51°13.595 2°56.102 126.8 -999 210 9.2
2005-05-02 06:38:06 51°13.595 2°56.102 126.8 -999 205 9.3
2005-05-02 06:38:12 51°13.595 2°56.102 126.8 -999 265 9.2
2005-05-02 06:38:17 51°13.595 2°56.102 126.8 -999 253 9.3
2005-05-02 06:38:21 51°13.595 2°56.102 126.7 -999 39 9.3
2005-05-02 06:38:27 51°13.595 2°56.102 126.7 -999 56 9.3
2005-05-02 06:38:31 51°13.595 2°56.102 126.7 -999 18 9.2
2005-05-02 06:38:36 51°13.595 2°56.102 126.7 -999 1 9.3
2005-05-02 06:38:41 51°13.595 2°56.102 126.7 -999 1 9.3
2005-05-02 06:38:47 51°13.595 2°56.102 126.7 -999 39 9.2
2005-05-02 06:38:51 51°13.595 2°56.102 126.7 -999 57 9.3
2005-05-02 06:38:57 51°13.595 2°56.102 126.7 -999 57 9.3
2005-05-02 06:39:01 51°13.595 2°56.102 126.7 -999 13 9.3
2005-05-02 06:39:06 51°13.596 2°56.102 126.7 -999 13 9.3
2005-05-02 06:39:11 51°13.596 2°56.102 126.7 -999 13 9.2
2005-05-02 06:39:16 51°13.596 2°56.101 126.7 -999 13 9.4
2005-05-02 06:39:21 51°13.596 2°56.101 126.7 -999 203 9.3
2005-05-02 06:39:27 51°13.596 2°56.101 126.7 -999 202 9.3
2005-05-02 06:39:31 51°13.596 2°56.101 126.7 -999 202 9.3
2005-05-02 06:39:37 51°13.596 2°56.101 126.7 -999 166 9.3
2005-05-02 06:39:41 51°13.596 2°56.101 126.7 -999 166 9.2
2005-05-02 06:39:46 51°13.596 2°56.101 126.7 -999 3 9.3
2005-05-02 06:39:51 51°13.596 2°56.101 126.7 -999 187 9.2
2005-05-02 06:39:57 51°13.596 2°56.101 126.7 -999 187 9.2
2005-05-02 06:40:01 51°13.596 2°56.101 126.7 0.1 30 9.2
2005-05-02 06:40:06 51°13.596 2°56.101 126.7 0.1 30 9.3
2005-05-02 06:40:11 51°13.596 2°56.1 126.7 0.1 30 9.3
2005-05-02 06:40:16 51°13.596 2°56.1 126.7 -999 5 9.2
2005-05-02 06:40:21 51°13.596 2°56.1 126.7 -999 5 9.2
2005-05-02 06:40:27 51°13.596 2°56.1 126.7 -999 332 9.2
2005-05-02 06:40:31 51°13.596 2°56.1 126.7 -999 332 9.3
2005-05-02 06:40:36 51°13.596 2°56.1 126.7 0.1 34 9.2
2005-05-02 06:40:41 51°13.596 2°56.1 126.6 0.1 34 9.3
2005-05-02 06:40:46 51°13.596 2°56.1 126.6 0.1 34 9.3
2005-05-02 06:40:51 51°13.596 2°56.101 126.5 0.1 34 9.3
2005-05-02 06:40:57 51°13.596 2°56.101 126.5 -999 207 9.3
2005-05-02 06:41:01 51°13.596 2°56.101 126.5 -999 207 9.3
2005-05-02 06:41:07 51°13.596 2°56.101 126.5 -999 127 9.3
2005-05-02 06:41:11 51°13.596 2°56.101 126.5 -999 233 9.2
2005-05-02 06:41:17 51°13.596 2°56.101 126.4 -999 233 9.2
2005-05-02 06:41:21 51°13.596 2°56.101 126.4 -999 159 9.2
2005-05-02 06:41:27 51°13.596 2°56.101 126.2 -999 120 9.2
2005-05-02 06:41:31 51°13.596 2°56.101 126 -999 120 9.3
2005-05-02 06:41:36 51°13.596 2°56.101 125.9 0.1 192 9.2
2005-05-02 06:41:41 51°13.596 2°56.101 126.1 -999 68 9.3
2005-05-02 06:41:47 51°13.595 2°56.101 126.3 0.1 217 9.3
2005-05-02 06:41:51 51°13.596 2°56.101 126.3 -999 213 9.3
2005-05-02 06:41:57 51°13.596 2°56.101 126.3 -999 213 9.3
2005-05-02 06:42:02 51°13.595 2°56.101 126.3 -999 213 9.3
2005-05-02 06:42:06 51°13.595 2°56.101 126.3 -999 356 9.3
2005-05-02 06:42:11 51°13.595 2°56.101 126.3 -999 356 9.3
2005-05-02 06:42:17 51°13.595 2°56.101 126.3 -999 46 9.2
2005-05-02 06:42:21 51°13.595 2°56.101 126.3 -999 21 9.2
2005-05-02 06:42:27 51°13.595 2°56.101 126.3 -999 281 9.3
2005-05-02 06:42:31 51°13.595 2°56.101 126.3 -999 281 9.3
2005-05-02 06:42:37 51°13.595 2°56.101 126.3 -999 91 9.3
2005-05-02 06:42:41 51°13.595 2°56.101 126.3 -999 167 9.2
2005-05-02 06:42:46 51°13.595 2°56.101 126.4 -999 53 9.3
2005-05-02 06:42:51 51°13.595 2°56.101 126.4 -999 53 9.3
2005-05-02 06:42:56 51°13.595 2°56.101 126.4 -999 192 9.3
2005-05-02 06:43:02 51°13.595 2°56.101 126.4 -999 130 9.3
2005-05-02 06:43:06 51°13.595 2°56.101 126.4 0.1 164 9.3
2005-05-02 06:43:11 51°13.595 2°56.101 126.4 0.1 164 9.3
2005-05-02 06:43:17 51°13.594 2°56.102 126.4 -999 220 9.3
2005-05-02 06:43:22 51°13.593 2°56.102 126.7 0.1 233 9.3
2005-05-02 06:43:26 51°13.593 2°56.102 127 0.1 233 9.2
2005-05-02 06:43:31 51°13.593 2°56.102 127.4 0.1 233 9.2
2005-05-02 06:43:37 51°13.593 2°56.102 127.6 -999 199 9.3
2005-05-02 06:43:41 51°13.593 2°56.102 127.8 -999 199 9.3
2005-05-02 06:43:47 51°13.593 2°56.102 127.9 -999 342 9.2
2005-05-02 06:43:51 51°13.593 2°56.102 127.9 -999 267 9.2
2005-05-02 06:43:57 51°13.594 2°56.102 127.9 -999 267 9.2
2005-05-02 06:44:01 51°13.594 2°56.102 127.9 -999 26 9.3
2005-05-02 06:44:06 51°13.594 2°56.102 127.9 -999 26 9.2
2005-05-02 06:44:11 51°13.594 2°56.102 127.9 -999 26 9.2
2005-05-02 06:44:16 51°13.594 2°56.102 127.9 -999 27 9.2
2005-05-02 06:44:21 51°13.594 2°56.102 127.9 -999 27 9.2
2005-05-02 06:44:26 51°13.594 2°56.102 127.9 -999 271 9.2
2005-05-02 06:44:31 51°13.594 2°56.102 127.9 -999 271 9.3
2005-05-02 06:44:37 51°13.595 2°56.102 127.9 -999 114 9.3
2005-05-02 06:44:41 51°13.595 2°56.103 127.9 -999 114 9.2
2005-05-02 06:44:46 51°13.595 2°56.103 127.9 -999 114 9.3
2005-05-02 06:44:51 51°13.595 2°56.103 127.9 -999 114 9.2
2005-05-02 06:44:57 51°13.595 2°56.103 127.9 -999 290 9.3
2005-05-02 06:45:01 51°13.595 2°56.103 127.9 -999 290 9.2
2005-05-02 06:45:07 51°13.595 2°56.103 127.9 -999 33 9.2
2005-05-02 06:45:11 51°13.595 2°56.103 127.9 -999 32 9.2
2005-05-02 06:45:17 51°13.595 2°56.103 127.9 -999 32 9.2
2005-05-02 06:45:21 51°13.595 2°56.103 127.9 -999 84 9.5
2005-05-02 06:45:27 51°13.595 2°56.103 127.9 -999 84 9.2
2005-05-02 06:45:31 51°13.596 2°56.103 127.9 -999 84 9.3
2005-05-02 06:45:36 51°13.596 2°56.103 127.9 -999 46 9.3
2005-05-02 06:45:41 51°13.596 2°56.103 127.9 -999 46 9.3
2005-05-02 06:45:47 51°13.595 2°56.102 127.9 -999 46 9.3
2005-05-02 06:45:51 51°13.595 2°56.102 127.9 -999 46 9.3
2005-05-02 06:45:56 51°13.595 2°56.102 127.9 -999 345 9.3
2005-05-02 06:46:01 51°13.595 2°56.102 127.8 -999 345 9.2
2005-05-02 06:46:07 51°13.595 2°56.102 127.8 -999 345 9.3
2005-05-02 06:46:12 51°13.595 2°56.103 127.8 -999 339 9.5
2005-05-02 06:46:16 51°13.595 2°56.103 127.8 0.1 224 9.2
2005-05-02 06:46:21 51°13.595 2°56.102 127.8 0.1 224 9.3
2005-05-02 06:46:27 51°13.595 2°56.103 127.8 -999 196 -999
2005-05-02 06:46:32 51°13.595 2°56.104 127.7 -999 196 9.3
2005-05-02 06:46:37 51°13.596 2°56.104 127.7 -999 51 -999
2005-05-02 06:46:42 51°13.596 2°56.105 127.7 -999 19 9.3
2005-05-02 06:46:46 51°13.596 2°56.106 127.7 -999 7 9.3
2005-05-02 06:46:51 51°13.596 2°56.107 127.7 -999 7 9.3
2005-05-02 06:46:57 51°13.596 2°56.108 127.7 -999 218 9.3
2005-05-02 06:47:01 51°13.596 2°56.108 127.7 -999 60 9.3
2005-05-02 06:47:06 51°13.596 2°56.108 127.6 -999 318 9.3
2005-05-02 06:47:11 51°13.596 2°56.108 127.6 -999 318 9.3
2005-05-02 06:47:17 51°13.596 2°56.108 127.6 -999 318 9.3
2005-05-02 06:47:21 51°13.596 2°56.104 127.6 -999 318 9.3
2005-05-02 06:47:26 51°13.595 2°56.101 127.1 0.1 61 9.3
2005-05-02 06:47:31 51°13.595 2°56.101 126.2 0.1 61 9.3
2005-05-02 06:47:36 51°13.594 2°56.101 124.6 0.1 61 9.2
2005-05-02 06:47:41 51°13.594 2°56.101 122.9 0.1 199 9.3
2005-05-02 06:47:47 51°13.595 2°56.102 121.4 0.1 197 9.3
2005-05-02 06:47:51 51°13.595 2°56.102 119.8 0.1 197 9.3
2005-05-02 06:47:56 51°13.594 2°56.102 118.1 0.1 197 9.3
2005-05-02 06:48:01 51°13.594 2°56.102 116.1 0.1 197 9.3
2005-05-02 06:48:07 51°13.594 2°56.101 113.9 0.2 239 9.4
2005-05-02 06:48:11 51°13.594 2°56.1 112.5 0.2 239 9.3
2005-05-02 06:48:17 51°13.594 2°56.099 111.5 0.2 239 9.3
2005-05-02 06:48:21 51°13.594 2°56.097 111 0.2 239 9.3
2005-05-02 06:48:27 51°13.595 2°56.094 110.6 1 289 9.2
2005-05-02 06:48:31 51°13.595 2°56.092 110.5 1.1 285 9.2
2005-05-02 06:48:36 51°13.596 2°56.089 111 1.1 285 9.4
2005-05-02 06:48:42 51°13.597 2°56.086 111.6 1.1 285 -999
2005-05-02 06:48:47 51°13.598 2°56.083 112.5 1.5 291 -999
2005-05-02 06:48:52 51°13.599 2°56.079 113.6 1.7 292 -999
2005-05-02 06:48:57 51°13.6 2°56.075 114.3 1.7 292 -999
2005-05-02 06:49:02 51°13.601 2°56.07 115 2 292 -999
2005-05-02 06:49:07 51°13.602 2°56.066 115.5 2.3 291 -999
2005-05-02 06:49:12 51°13.604 2°56.061 116.1 2.4 293 -999
2005-05-02 06:49:17 51°13.605 2°56.056 116.5 2.5 292 -999
2005-05-02 06:49:22 51°13.606 2°56.05 116.8 2.5 292 -999
2005-05-02 06:49:27 51°13.608 2°56.044 117.5 2.5 292 -999
2005-05-02 06:49:31 51°13.609 2°56.039 118 2.8 293 -999
2005-05-02 06:49:37 51°13.611 2°56.033 119 2.9 294 -999
2005-05-02 06:49:42 51°13.613 2°56.026 119.7 3.1 295 -999
2005-05-02 06:49:47 51°13.615 2°56.02 120.8 3.2 296 -999
2005-05-02 06:49:52 51°13.617 2°56.013 121.9 3.3 296 -999
2005-05-02 06:49:57 51°13.619 2°56.007 122.9 3.3 296 -999
2005-05-02 06:50:02 51°13.622 2°55.999 124 3.5 298 -999
2005-05-02 06:50:07 51°13.624 2°55.993 124.8 3.6 300 -999
2005-05-02 06:50:12 51°13.626 2°55.986 125.4 3.7 301 -999
2005-05-02 06:50:17 51°13.629 2°55.979 125.8 3.7 301 -999
2005-05-02 06:50:22 51°13.632 2°55.971 126.2 3.8 301 -999
2005-05-02 06:50:27 51°13.635 2°55.965 126.8 3.8 302 -999
2005-05-02 06:50:31 51°13.637 2°55.958 127.4 3.8 303 -999
2005-05-02 06:50:37 51°13.641 2°55.95 127.8 3.9 303 -999
2005-05-02 06:50:42 51°13.644 2°55.943 128.2 3.9 304 -999
2005-05-02 06:50:47 51°13.647 2°55.935 128.5 4 304 -999
2005-05-02 06:50:52 51°13.651 2°55.928 128.6 4 305 -999
2005-05-02 06:50:57 51°13.654 2°55.921 128.9 4.1 306 -999
2005-05-02 06:51:02 51°13.657 2°55.913 129 4.1 306 -999
2005-05-02 06:51:07 51°13.66 2°55.906 129.1 4.2 306 -999
2005-05-02 06:51:12 51°13.664 2°55.898 129.1 4.2 306 -999
2005-05-02 06:51:17 51°13.667 2°55.891 129.1 4.2 306 -999
2005-05-02 06:51:22 51°13.67 2°55.884 129.1 4.1 306 -999
2005-05-02 06:51:27 51°13.673 2°55.877 128.8 3.9 306 -999
2005-05-02 06:51:32 51°13.677 2°55.87 128.4 3.9 306 -999
2005-05-02 06:51:37 51°13.68 2°55.863 127.8 3.9 306 -999
2005-05-02 06:51:42 51°13.683 2°55.855 127.3 4 305 -999
2005-05-02 06:51:47 51°13.686 2°55.849 126.8 4 305 -999
2005-05-02 06:51:52 51°13.689 2°55.841 126.1 4.1 305 -999
2005-05-02 06:51:57 51°13.693 2°55.833 125.2 4.1 305 -999
2005-05-02 06:52:02 51°13.696 2°55.824 124.1 4.2 303 -999
2005-05-02 06:52:07 51°13.699 2°55.817 122.9 4.2 302 -999
2005-05-02 06:52:12 51°13.702 2°55.809 121.7 4.2 301 -999
2005-05-02 06:52:17 51°13.704 2°55.801 120.3 4.2 301 -999
2005-05-02 06:52:22 51°13.708 2°55.792 118.9 4.2 298 -999
2005-05-02 06:52:27 51°13.71 2°55.785 117.3 4.1 296 -999
2005-05-02 06:52:31 51°13.712 2°55.778 115.7 4.1 296 -999
2005-05-02 06:52:37 51°13.715 2°55.769 114.1 4 293 -999
2005-05-02 06:52:42 51°13.716 2°55.761 112.5 4 293 -999
2005-05-02 06:52:47 51°13.718 2°55.752 110.7 4 293 -999
2005-05-02 06:52:52 51°13.72 2°55.744 108.9 3.9 290 -999
2005-05-02 06:52:57 51°13.721 2°55.737 107.4 3.6 289 -999
2005-05-02 06:53:02 51°13.723 2°55.73 105.9 3.5 287 -999
2005-05-02 06:53:07 51°13.723 2°55.724 104.8 3 286 -999
2005-05-02 06:53:12 51°13.724 2°55.719 103 2.8 285 -999
2005-05-02 06:53:17 51°13.725 2°55.716 100.3 2.1 284 -999
2005-05-02 06:53:21 51°13.725 2°55.714 97.4 2.1 284 13.1
2005-05-02 06:53:26 51°13.725 2°55.713 94.7 1.1 286 13
2005-05-02 06:53:31 51°13.725 2°55.714 91.6 1.1 286 12.8
2005-05-02 06:53:37 51°13.725 2°55.715 86.9 1.1 286 13
2005-05-02 06:53:41 51°13.725 2°55.717 81.3 1.1 286 13.1
2005-05-02 06:53:46 51°13.726 2°55.719 75.1 1.1 57 13.1
2005-05-02 06:53:51 51°13.727 2°55.72 68.9 1 52 13.2
2005-05-02 06:53:55 51°13.727 2°55.72 65.1 1 52 -999
2005-05-02 06:54:02 51°13.727 2°55.72 62 0.3 40 13
2005-05-02 06:54:06 51°13.727 2°55.719 59.1 0.3 236 13.1
2005-05-02 06:54:11 51°13.726 2°55.718 57.1 0.7 240 13.2
2005-05-02 06:54:17 51°13.725 2°55.716 55.8 1 233 13
2005-05-02 06:54:21 51°13.725 2°55.714 54.6 1.1 235 13
2005-05-02 06:54:27 51°13.723 2°55.711 53.8 1.3 232 12.8
2005-05-02 06:54:31 51°13.722 2°55.709 53.2 1.3 232 -999
2005-05-02 06:54:37 51°13.722 2°55.708 52.9 1.2 231 -999
2005-05-02 06:54:42 51°13.722 2°55.708 52.6 0.5 241 -999
2005-05-02 06:54:47 51°13.723 2°55.708 49.4 0.3 32 -999
2005-05-02 06:54:52 51°13.724 2°55.71 42.9 0.5 17 -999
2005-05-02 06:54:57 51°13.725 2°55.711 38.4 1.1 35 -999
2005-05-02 06:55:02 51°13.727 2°55.712 32.3 1.1 24 -999
2005-05-02 06:55:07 51°13.728 2°55.712 28 1.1 26 -999
2005-05-02 06:55:12 51°13.728 2°55.713 24.6 1.1 26 -999
2005-05-02 06:55:17 51°13.727 2°55.713 21.7 1.1 26 -999
2005-05-02 06:55:22 51°13.726 2°55.712 19.5 0.7 190 -999
2005-05-02 06:55:26 51°13.725 2°55.712 17.7 1 190 5.6
2005-05-02 06:55:31 51°13.723 2°55.712 16.3 1.4 189 5.4
2005-05-02 06:55:37 51°13.72 2°55.711 14.9 1.4 189 13.1
2005-05-02 06:55:42 51°13.718 2°55.71 13.7 1.4 189 -999
2005-05-02 06:55:47 51°13.717 2°55.71 12.9 1.2 191 -999
2005-05-02 06:55:52 51°13.718 2°55.71 10.4 0.4 171 -999
2005-05-02 06:55:57 51°13.719 2°55.71 5.8 0.5 353 -999
2005-05-02 06:56:02 51°13.722 2°55.709 359.8 1 4 -999
2005-05-02 06:56:07 51°13.725 2°55.709 353.4 2 349 -999
2005-05-02 06:56:12 51°13.728 2°55.707 348.7 2.2 347 -999
2005-05-02 06:56:17 51°13.732 2°55.705 345.6 2.7 343 -999
2005-05-02 06:56:22 51°13.737 2°55.702 343.3 2.7 343 12.5
2005-05-02 06:56:27 51°13.741 2°55.699 342.4 2.7 343 12.3
2005-05-02 06:56:31 51°13.746 2°55.695 341.9 2.7 343 12.4
2005-05-02 06:56:37 51°13.754 2°55.691 341.6 2.7 343 12
2005-05-02 06:56:41 51°13.759 2°55.687 341.3 5.1 337 12.1
2005-05-02 06:56:47 51°13.769 2°55.681 340.8 5.4 337 12.2
2005-05-02 06:56:51 51°13.776 2°55.676 340.7 6 338 12.2
2005-05-02 06:56:56 51°13.783 2°55.671 341.1 6 338 12.1
2005-05-02 06:57:02 51°13.794 2°55.664 340.9 6 338 12
2005-05-02 06:57:07 51°13.803 2°55.658 340.8 6.9 337 12.1
2005-05-02 06:57:11 51°13.811 2°55.652 340.8 7 337 12.2
2005-05-02 06:57:16 51°13.821 2°55.646 341 7.4 338 12.1
2005-05-02 06:57:21 51°13.831 2°55.639 341 7.5 337 12.2
2005-05-02 06:57:27 51°13.842 2°55.632 340.7 7.7 337 12.2
2005-05-02 06:57:31 51°13.85 2°55.626 340.8 7.8 337 12
2005-05-02 06:57:35 51°13.859 2°55.62 341 7.8 337 11.8
2005-05-02 06:57:41 51°13.871 2°55.611 340.8 8 337 11.8
2005-05-02 06:57:47 51°13.882 2°55.604 340.6 8.1 336 11.7
2005-05-02 06:57:52 51°13.893 2°55.596 340.7 8.1 336 12.1
2005-05-02 06:57:57 51°13.903 2°55.59 340.8 8.1 336 12.3
2005-05-02 06:58:01 51°13.912 2°55.583 340.6 8.3 337 12.1
2005-05-02 06:58:06 51°13.923 2°55.575 340.3 8.3 337 12
2005-05-02 06:58:11 51°13.934 2°55.567 339.9 8.4 336 12.1
2005-05-02 06:58:17 51°13.946 2°55.559 339.5 8.4 335 12.3
2005-05-02 06:58:21 51°13.954 2°55.553 339.2 8.4 335 12.3
2005-05-02 06:58:27 51°13.967 2°55.543 339.2 8.4 336 12.5
2005-05-02 06:58:31 51°13.977 2°55.537 339.8 8.5 336 12.3
2005-05-02 06:58:37 51°13.989 2°55.528 340.2 8.6 336 12.2
2005-05-02 06:58:41 51°13.998 2°55.52 339.9 8.6 336 12.3
2005-05-02 06:58:47 51°14.01 2°55.511 339.4 8.9 335 12.1
2005-05-02 06:58:51 51°14.02 2°55.503 339 8.9 335 11.9
2005-05-02 06:58:56 51°14.031 2°55.496 339.3 8.9 335 11.8
2005-05-02 06:59:02 51°14.044 2°55.486 339.6 9.1 335 12.1
2005-05-02 06:59:07 51°14.056 2°55.477 339.5 9.1 335 11.9
2005-05-02 06:59:11 51°14.066 2°55.469 339.2 9.1 335 12.1
2005-05-02 06:59:17 51°14.079 2°55.46 338.9 9.2 335 11.8
2005-05-02 06:59:21 51°14.088 2°55.453 338.7 9.2 335 11.9
2005-05-02 06:59:27 51°14.102 2°55.443 338.7 9.3 335 12
2005-05-02 06:59:31 51°14.113 2°55.435 338.8 9.3 335 12
2005-05-02 06:59:36 51°14.124 2°55.425 338.9 9.3 335 12.2
2005-05-02 06:59:41 51°14.135 2°55.417 338.5 9.4 334 12.2
2005-05-02 06:59:47 51°14.149 2°55.405 337.6 9.4 334 12.8
2005-05-02 06:59:52 51°14.16 2°55.395 336.7 9.6 332 13.5
2005-05-02 06:59:57 51°14.172 2°55.385 335.9 9.6 332 12.8
2005-05-02 07:00:01 51°14.181 2°55.377 335.6 9.6 331 13.6
2005-05-02 07:00:06 51°14.194 2°55.364 334.6 9.7 329 12.8
2005-05-02 07:00:11 51°14.205 2°55.352 333.1 9.8 328 12.9
2005-05-02 07:00:17 51°14.217 2°55.337 330.5 9.8 328 13.4
2005-05-02 07:00:21 51°14.227 2°55.325 328.1 10 323 13.4
2005-05-02 07:00:26 51°14.238 2°55.31 326.2 10 323 13.3
2005-05-02 07:00:31 51°14.249 2°55.295 324.1 10 323 13.5
2005-05-02 07:00:37 51°14.259 2°55.277 321.1 10.2 316 12.7
2005-05-02 07:00:42 51°14.269 2°55.26 319 10.2 316 12.9
2005-05-02 07:00:46 51°14.277 2°55.244 316.4 10.4 311 12.7
2005-05-02 07:00:51 51°14.287 2°55.226 314.5 10.6 310 12.6
2005-05-02 07:00:57 51°14.298 2°55.205 313.7 10.8 310 12.5
2005-05-02 07:01:01 51°14.306 2°55.188 313.3 11 310 12.4
2005-05-02 07:01:07 51°14.317 2°55.166 312.7 11.3 309 12.4
2005-05-02 07:01:11 51°14.326 2°55.149 312.5 11.3 309 12.9
2005-05-02 07:01:17 51°14.337 2°55.127 312.2 11.3 309 12.9
2005-05-02 07:01:21 51°14.345 2°55.11 312 11.6 308 12.7
2005-05-02 07:01:27 51°14.357 2°55.086 311.8 11.7 309 12.8
2005-05-02 07:01:31 51°14.367 2°55.068 312.4 11.8 310 12.3
2005-05-02 07:01:37 51°14.379 2°55.047 313.4 11.9 311 12.5
2005-05-02 07:01:41 51°14.39 2°55.03 314.7 12 314 12.7
2005-05-02 07:01:47 51°14.404 2°55.011 317.3 12 314 12.7
2005-05-02 07:01:51 51°14.416 2°54.998 321.8 12 323 12.7
2005-05-02 07:01:57 51°14.431 2°54.981 324.9 12.1 326 12.7
2005-05-02 07:02:01 51°14.444 2°54.968 325.9 12.1 326 12.6
2005-05-02 07:02:07 51°14.46 2°54.952 326 12.1 327 12.6
2005-05-02 07:02:11 51°14.472 2°54.939 325.7 12 326 12.5
2005-05-02 07:02:17 51°14.487 2°54.923 324.9 12 326 12.3
2005-05-02 07:02:21 51°14.5 2°54.909 324.1 12 325 12.4
2005-05-02 07:02:26 51°14.513 2°54.894 323.4 12 325 12.2
2005-05-02 07:02:32 51°14.528 2°54.877 323 12 325 12.2
2005-05-02 07:02:36 51°14.539 2°54.864 322.6 12 324 12.2
2005-05-02 07:02:41 51°14.552 2°54.848 322.2 12 324 12.1
2005-05-02 07:02:46 51°14.566 2°54.833 322.2 12.3 325 12
2005-05-02 07:02:51 51°14.582 2°54.816 322.9 12.4 326 12.1
2005-05-02 07:02:57 51°14.599 2°54.799 323.7 12.7 327 11.9
2005-05-02 07:03:01 51°14.613 2°54.786 324.7 12.7 327 12
2005-05-02 07:03:06 51°14.628 2°54.771 325.9 13.1 328 11.9
2005-05-02 07:03:11 51°14.644 2°54.756 326.6 13.1 329 11.8
2005-05-02 07:03:15 51°14.657 2°54.744 327.4 13.3 330 11.7
2005-05-02 07:03:21 51°14.677 2°54.728 328 13.3 330 11.8
2005-05-02 07:03:27 51°14.695 2°54.713 328.8 13.4 332 11.8
2005-05-02 07:03:31 51°14.71 2°54.7 329.6 13.4 333 11.8
2005-05-02 07:03:36 51°14.727 2°54.687 330.4 13.4 333 11.9
2005-05-02 07:03:41 51°14.742 2°54.675 330.9 13.5 333 12
2005-05-02 07:03:47 51°14.761 2°54.658 331 13.5 333 11.8
2005-05-02 07:03:51 51°14.776 2°54.646 331 13.5 333 11.7
2005-05-02 07:03:56 51°14.793 2°54.632 330.9 13.5 333 11.6
2005-05-02 07:04:01 51°14.81 2°54.619 330.7 13.5 332 11.7
2005-05-02 07:04:07 51°14.828 2°54.604 330.8 13.5 333 11.6
2005-05-02 07:04:11 51°14.843 2°54.592 330.9 13.5 333 11.5
2005-05-02 07:04:16 51°14.859 2°54.578 331 13.5 333 11.5
2005-05-02 07:04:21 51°14.876 2°54.564 331.2 13.4 332 11.5
2005-05-02 07:04:27 51°14.895 2°54.549 331 13.5 334 11.5
2005-05-02 07:04:31 51°14.91 2°54.538 331.3 13.5 333 11.4
2005-05-02 07:04:36 51°14.925 2°54.526 331.7 13.5 334 11.4
2005-05-02 07:04:42 51°14.944 2°54.51 332.2 13.5 334 11.3
2005-05-02 07:04:46 51°14.959 2°54.497 331.8 13.4 332 11.2
2005-05-02 07:04:51 51°14.975 2°54.482 330.9 13.4 331 11.1
2005-05-02 07:04:57 51°14.993 2°54.467 330.7 13.4 331 11
2005-05-02 07:05:01 51°15.006 2°54.455 330.4 13.4 331 10.9
2005-05-02 07:05:06 51°15.024 2°54.439 330.5 13.4 331 10.8
2005-05-02 07:05:11 51°15.04 2°54.425 330.7 13.4 331 10.9
2005-05-02 07:05:17 51°15.058 2°54.408 330.8 13.4 331 10.8
2005-05-02 07:05:21 51°15.073 2°54.395 330.8 13.4 331 10.8
2005-05-02 07:05:27 51°15.091 2°54.379 330.9 13.5 330 10.8
2005-05-02 07:05:31 51°15.106 2°54.367 331.2 13.5 331 10.8
2005-05-02 07:05:36 51°15.122 2°54.352 331.9 13.5 331 10.9
2005-05-02 07:05:41 51°15.138 2°54.34 332.3 13.5 331 10.9
2005-05-02 07:05:46 51°15.156 2°54.325 333.1 13.7 333 11.1
2005-05-02 07:05:51 51°15.173 2°54.312 333.8 13.7 333 11
2005-05-02 07:05:56 51°15.191 2°54.299 334.4 13.7 334 11.1
2005-05-02 07:06:01 51°15.208 2°54.287 334.9 13.8 335 11.1
2005-05-02 07:06:07 51°15.227 2°54.273 335 13.7 335 11.2
2005-05-02 07:06:11 51°15.243 2°54.261 334.9 13.7 335 11.1
2005-05-02 07:06:16 51°15.26 2°54.248 335 13.7 335 11.2
2005-05-02 07:06:21 51°15.275 2°54.236 334.2 13.8 334 11.3
2005-05-02 07:06:27 51°15.295 2°54.22 333.5 13.8 334 11.3
2005-05-02 07:06:31 51°15.311 2°54.207 333.2 13.8 334 11.5
2005-05-02 07:06:37 51°15.329 2°54.193 332.6 13.7 333 11.5
2005-05-02 07:06:41 51°15.343 2°54.182 332.5 13.7 334 11.5
2005-05-02 07:06:47 51°15.363 2°54.166 332.8 13.7 334 11.6
2005-05-02 07:06:51 51°15.378 2°54.154 332.9 13.7 334 11.7
2005-05-02 07:06:57 51°15.397 2°54.14 332.7 13.6 334 11.7
2005-05-02 07:07:01 51°15.411 2°54.129 332.5 13.7 334 11.8
2005-05-02 07:07:06 51°15.427 2°54.115 331.9 13.6 333 11.9
2005-05-02 07:07:12 51°15.447 2°54.097 331 13.6 333 12
2005-05-02 07:07:16 51°15.46 2°54.086 330.2 13.5 331 12
2005-05-02 07:07:21 51°15.479 2°54.069 329.8 13.6 331 12.1
2005-05-02 07:07:26 51°15.495 2°54.055 329.5 13.5 331 12.3
2005-05-02 07:07:31 51°15.511 2°54.04 329.5 13.5 331 12.2
2005-05-02 07:07:37 51°15.53 2°54.024 329.4 13.6 331 12.3
2005-05-02 07:07:42 51°15.546 2°54.009 329.4 13.6 331 12.5
2005-05-02 07:07:47 51°15.562 2°53.995 329.3 13.6 331 12.5
2005-05-02 07:07:51 51°15.578 2°53.983 329.5 13.5 331 12.6
2005-05-02 07:07:56 51°15.594 2°53.969 330.4 13.6 333 12.7
2005-05-02 07:08:01 51°15.609 2°53.957 331.4 13.5 333 12.6
2005-05-02 07:08:07 51°15.63 2°53.941 331.6 13.5 333 12.7
2005-05-02 07:08:11 51°15.645 2°53.929 332.3 13.5 333 12.7
2005-05-02 07:08:16 51°15.66 2°53.917 332.2 13.6 334 12.7
2005-05-02 07:08:21 51°15.677 2°53.904 332.3 13.6 334 12.8
2005-05-02 07:08:27 51°15.698 2°53.888 332.4 13.6 334 12.8
2005-05-02 07:08:31 51°15.713 2°53.876 332.2 13.6 333 12.9
2005-05-02 07:08:37 51°15.731 2°53.861 331.7 13.6 333 12.9
2005-05-02 07:08:41 51°15.746 2°53.849 331.6 13.6 333 13
2005-05-02 07:08:47 51°15.765 2°53.834 331.6 13.6 333 13.1
2005-05-02 07:08:51 51°15.78 2°53.822 331.5 13.5 334 13.1
2005-05-02 07:08:56 51°15.797 2°53.808 331.6 13.6 334 13.1
2005-05-02 07:09:01 51°15.814 2°53.795 331.6 13.6 333 13.2
2005-05-02 07:09:06 51°15.83 2°53.781 331.6 13.6 333 13.2
2005-05-02 07:09:11 51°15.847 2°53.768 331.6 13.6 333 13.2
2005-05-02 07:09:17 51°15.866 2°53.753 331.6 13.6 333 13.3
2005-05-02 07:09:21 51°15.879 2°53.742 331.7 13.6 333 13.3
2005-05-02 07:09:27 51°15.899 2°53.726 331.8 13.6 333 13.3
2005-05-02 07:09:31 51°15.915 2°53.714 332 13.6 334 13.4
2005-05-02 07:09:37 51°15.933 2°53.7 332.3 13.6 333 13.4
2005-05-02 07:09:42 51°15.95 2°53.687 332.4 13.6 333 13.4
2005-05-02 07:09:46 51°15.965 2°53.675 332.5 13.6 334 13.4
2005-05-02 07:09:51 51°15.982 2°53.661 332.5 13.6 334 13.5
2005-05-02 07:09:57 51°16.001 2°53.647 332.4 13.6 334 13.5
2005-05-02 07:10:01 51°16.014 2°53.636 332.3 13.6 334 13.5
2005-05-02 07:10:07 51°16.035 2°53.621 332.4 13.6 334 13.6
2005-05-02 07:10:11 51°16.05 2°53.609 333 13.6 334 13.6
2005-05-02 07:10:17 51°16.069 2°53.595 333.2 13.6 334 13.7
2005-05-02 07:10:21 51°16.085 2°53.584 333.5 13.6 335 13.7
2005-05-02 07:10:27 51°16.103 2°53.57 333.7 13.6 335 13.7
2005-05-02 07:10:31 51°16.119 2°53.558 333.4 13.6 335 13.8
2005-05-02 07:10:36 51°16.134 2°53.547 333.1 13.7 335 13.8
2005-05-02 07:10:42 51°16.155 2°53.531 333.2 13.6 335 13.9
2005-05-02 07:10:46 51°16.169 2°53.521 333.5 13.7 335 13.9
2005-05-02 07:10:51 51°16.187 2°53.507 333.8 13.7 335 13.8
2005-05-02 07:10:56 51°16.205 2°53.494 333.7 13.7 335 13.8
2005-05-02 07:11:01 51°16.22 2°53.482 333.6 13.7 335 13.8
2005-05-02 07:11:07 51°16.241 2°53.467 333.4 13.7 335 13.8
2005-05-02 07:11:12 51°16.258 2°53.454 333.5 13.7 334 13.8
2005-05-02 07:11:16 51°16.273 2°53.442 333 13.7 335 13.9
2005-05-02 07:11:21 51°16.289 2°53.43 332.6 13.7 335 13.9
2005-05-02 07:11:27 51°16.309 2°53.414 332.4 13.7 334 14
2005-05-02 07:11:31 51°16.324 2°53.402 332.3 13.7 334 14
2005-05-02 07:11:37 51°16.343 2°53.387 332.2 13.7 334 14.1
2005-05-02 07:11:41 51°16.358 2°53.375 332 13.7 334 14
2005-05-02 07:11:47 51°16.377 2°53.36 332 13.7 334 14.1
2005-05-02 07:11:51 51°16.392 2°53.347 332.1 13.7 333 14.1
2005-05-02 07:11:57 51°16.411 2°53.333 332.2 13.7 334 14.1
2005-05-02 07:12:01 51°16.426 2°53.321 332.2 13.7 334 14.1
2005-05-02 07:12:07 51°16.445 2°53.307 332.4 13.7 334 14
2005-05-02 07:12:11 51°16.46 2°53.295 332.8 13.7 334 14.1
2005-05-02 07:12:17 51°16.479 2°53.281 333 13.7 335 14.1
2005-05-02 07:12:21 51°16.493 2°53.27 333.1 13.7 335 14.1
2005-05-02 07:12:27 51°16.513 2°53.254 333 13.7 335 14.2
2005-05-02 07:12:31 51°16.529 2°53.243 332.6 13.7 335 14.1
2005-05-02 07:12:37 51°16.547 2°53.228 332.4 13.7 335 14.1
2005-05-02 07:12:42 51°16.564 2°53.215 332.3 13.7 335 14
2005-05-02 07:12:46 51°16.579 2°53.202 332.3 13.6 334 13.9
2005-05-02 07:12:51 51°16.596 2°53.189 332.2 13.6 334 14
2005-05-02 07:12:56 51°16.614 2°53.176 332.1 13.6 334 13.9
2005-05-02 07:13:02 51°16.632 2°53.162 332.4 13.6 334 13.9
2005-05-02 07:13:07 51°16.649 2°53.148 332.6 13.6 335 13.7
2005-05-02 07:13:11 51°16.664 2°53.136 332.3 13.6 335 13.8
2005-05-02 07:13:17 51°16.682 2°53.119 330.4 13.6 335 13.6
2005-05-02 07:13:21 51°16.695 2°53.108 329.2 13.6 335 13.6
2005-05-02 07:13:27 51°16.714 2°53.089 328.1 13.6 335 13.4
2005-05-02 07:13:31 51°16.728 2°53.075 327.4 13.5 328 13.4
2005-05-02 07:13:37 51°16.746 2°53.057 326.8 13.5 329 13.3
2005-05-02 07:13:41 51°16.76 2°53.043 326.2 13.4 328 13.1
2005-05-02 07:13:46 51°16.775 2°53.027 325.5 13.4 327 12.9
2005-05-02 07:13:51 51°16.791 2°53.01 325.1 13.4 327 12.7
2005-05-02 07:13:57 51°16.808 2°52.993 324.8 13.4 327 12.5
2005-05-02 07:14:01 51°16.822 2°52.979 325.3 13.4 327 11.9
2005-05-02 07:14:07 51°16.84 2°52.962 326.1 13.4 327 11.3
2005-05-02 07:14:11 51°16.854 2°52.948 326.6 13.3 329 11.2
2005-05-02 07:14:17 51°16.871 2°52.931 326.9 13.3 329 10.8
2005-05-02 07:14:21 51°16.884 2°52.92 327.2 13.3 329 10.9
2005-05-02 07:14:27 51°16.903 2°52.901 327.3 13.4 329 11
2005-05-02 07:14:31 51°16.918 2°52.888 327.4 13.4 329 11.2
2005-05-02 07:14:37 51°16.935 2°52.871 327.7 13.5 330 11.3
2005-05-02 07:14:41 51°16.948 2°52.858 327.9 13.6 329 11.5
2005-05-02 07:14:47 51°16.968 2°52.84 327.6 13.5 329 11.6
2005-05-02 07:14:51 51°16.982 2°52.826 327.3 13.6 329 11.7
2005-05-02 07:14:57 51°17 2°52.809 327.3 13.6 329 11.8
2005-05-02 07:15:02 51°17.016 2°52.794 327.3 13.6 329 12
2005-05-02 07:15:07 51°17.032 2°52.778 327.3 13.6 329 12.1
2005-05-02 07:15:11 51°17.047 2°52.764 327.2 13.6 329 12.2
2005-05-02 07:15:16 51°17.063 2°52.749 327.3 13.6 329 12.2
2005-05-02 07:15:21 51°17.079 2°52.733 327.4 13.6 329 12.4
2005-05-02 07:15:27 51°17.097 2°52.717 327.5 13.6 329 12.4
2005-05-02 07:15:31 51°17.112 2°52.703 327.9 13.6 329 12.2
2005-05-02 07:15:36 51°17.128 2°52.688 328.1 13.7 330 12
2005-05-02 07:15:41 51°17.143 2°52.674 328 13.6 330 11.6
2005-05-02 07:15:47 51°17.163 2°52.656 327.9 13.5 330 11.7
2005-05-02 07:15:51 51°17.177 2°52.642 327.9 13.5 330 12.2
2005-05-02 07:15:56 51°17.193 2°52.627 327.9 13.6 329 11.8
2005-05-02 07:16:01 51°17.208 2°52.613 327.7 13.6 329 11.9
2005-05-02 07:16:06 51°17.226 2°52.596 327.5 13.6 329 11.9
2005-05-02 07:16:11 51°17.242 2°52.58 327.5 13.6 329 11.9
2005-05-02 07:16:17 51°17.26 2°52.563 327.3 13.6 329 12
2005-05-02 07:16:21 51°17.274 2°52.549 327.3 13.6 329 12.1
2005-05-02 07:16:25 51°17.287 2°52.537 327.7 13.7 329 12.4
2005-05-02 07:16:31 51°17.307 2°52.519 327.8 13.7 329 12.2
2005-05-02 07:16:37 51°17.325 2°52.502 327.9 13.7 329 12.4
2005-05-02 07:16:41 51°17.34 2°52.488 328 13.7 329 12.4
2005-05-02 07:16:47 51°17.358 2°52.471 327.9 13.7 329 12.2
2005-05-02 07:16:51 51°17.372 2°52.457 327.8 13.7 329 12.4
2005-05-02 07:16:56 51°17.389 2°52.442 328.1 13.7 329 12.5
2005-05-02 07:17:01 51°17.405 2°52.427 328.2 13.7 329 12.5
2005-05-02 07:17:07 51°17.423 2°52.41 328.1 13.6 330 12.5
2005-05-02 07:17:11 51°17.437 2°52.396 328.1 13.7 329 12.6
2005-05-02 07:17:17 51°17.455 2°52.379 327.8 13.6 329 12.6
2005-05-02 07:17:21 51°17.47 2°52.365 328 13.7 330 12.6
2005-05-02 07:17:27 51°17.488 2°52.348 328.1 13.6 329 12.6
2005-05-02 07:17:31 51°17.503 2°52.335 328.1 13.7 330 12.7
2005-05-02 07:17:36 51°17.518 2°52.321 328.2 13.7 330 12.5
2005-05-02 07:17:42 51°17.537 2°52.303 328.5 13.7 330 12.6
2005-05-02 07:17:47 51°17.554 2°52.288 328.6 13.7 329 12.6
2005-05-02 07:17:51 51°17.568 2°52.274 328.4 13.7 329 12.6
2005-05-02 07:17:57 51°17.587 2°52.257 328 13.7 330 12.6
2005-05-02 07:18:01 51°17.601 2°52.244 328.1 13.7 330 12.6
2005-05-02 07:18:07 51°17.62 2°52.227 328.5 13.7 331 12.6
2005-05-02 07:18:11 51°17.635 2°52.214 328.7 13.7 331 12.5
2005-05-02 07:18:17 51°17.653 2°52.197 328.7 13.7 330 12.5
2005-05-02 07:18:21 51°17.666 2°52.185 328.5 13.7 330 12.6
2005-05-02 07:18:27 51°17.686 2°52.167 328.4 13.7 330 12.6
2005-05-02 07:18:31 51°17.701 2°52.153 328.1 13.7 331 12.5
2005-05-02 07:18:37 51°17.719 2°52.136 328.2 13.7 331 12.6
2005-05-02 07:18:41 51°17.734 2°52.122 328.2 13.7 331 12.5
2005-05-02 07:18:46 51°17.75 2°52.107 328.1 13.7 330 12.6
2005-05-02 07:18:51 51°17.766 2°52.092 327.9 13.7 330 12.6
2005-05-02 07:18:57 51°17.784 2°52.075 327.6 13.7 329 12.6
2005-05-02 07:19:01 51°17.797 2°52.063 327.6 13.7 330 12.5
2005-05-02 07:19:07 51°17.817 2°52.045 328 13.6 330 12.5
2005-05-02 07:19:11 51°17.832 2°52.031 328.5 13.6 331 12.6
2005-05-02 07:19:17 51°17.85 2°52.015 328.8 13.6 331 12.5
2005-05-02 07:19:22 51°17.866 2°52 328.7 13.6 331 12.5
2005-05-02 07:19:27 51°17.882 2°51.984 328.3 13.6 329 12.5
2005-05-02 07:19:31 51°17.896 2°51.969 327.8 13.6 329 12.5
2005-05-02 07:19:37 51°17.914 2°51.952 327.4 13.5 328 12.6
2005-05-02 07:19:41 51°17.926 2°51.939 327.2 13.5 328 12.6
2005-05-02 07:19:47 51°17.945 2°51.919 327.2 13.5 327 12.6
2005-05-02 07:19:51 51°17.959 2°51.904 327.2 13.5 326 12.6
2005-05-02 07:19:57 51°17.976 2°51.887 327.1 13.5 326 12.7
2005-05-02 07:20:01 51°17.989 2°51.874 327.2 13.5 327 12.7
2005-05-02 07:20:06 51°18.006 2°51.856 328 13.5 327 12.7
2005-05-02 07:20:12 51°18.024 2°51.838 327.8 13.6 327 12.7
2005-05-02 07:20:16 51°18.038 2°51.823 328 13.6 327 12.8
2005-05-02 07:20:21 51°18.052 2°51.809 328.1 13.6 327 12.8
2005-05-02 07:20:27 51°18.071 2°51.789 328.3 13.6 328 12.8
2005-05-02 07:20:31 51°18.086 2°51.775 328.4 13.6 328 12.9
2005-05-02 07:20:37 51°18.104 2°51.758 328.8 13.6 328 12.9
2005-05-02 07:20:41 51°18.118 2°51.744 328.8 13.6 328 13
2005-05-02 07:20:47 51°18.136 2°51.727 328.9 13.6 328 13.1
2005-05-02 07:20:52 51°18.152 2°51.711 329 13.6 328 13.1
2005-05-02 07:20:57 51°18.168 2°51.695 328.9 13.6 328 13.3
2005-05-02 07:21:01 51°18.181 2°51.683 328.9 13.6 328 13.4
2005-05-02 07:21:06 51°18.199 2°51.665 328.9 13.6 328 13.5
2005-05-02 07:21:11 51°18.215 2°51.649 328.9 13.6 328 13.5
2005-05-02 07:21:17 51°18.232 2°51.631 328.8 13.7 328 13.6
2005-05-02 07:21:21 51°18.245 2°51.619 328.4 13.6 328 13.7
2005-05-02 07:21:27 51°18.265 2°51.6 328.7 13.6 328 13.8
2005-05-02 07:21:31 51°18.279 2°51.585 328.7 13.7 328 13.9
2005-05-02 07:21:36 51°18.295 2°51.569 328.6 13.7 328 14.1
2005-05-02 07:21:41 51°18.31 2°51.555 328.6 13.7 328 14.1
2005-05-02 07:21:47 51°18.33 2°51.536 328.5 13.8 329 14.2
2005-05-02 07:21:51 51°18.345 2°51.522 328.6 13.8 329 14.3
2005-05-02 07:21:56 51°18.361 2°51.506 328.2 13.8 328 14.4
2005-05-02 07:22:02 51°18.379 2°51.489 328.2 13.8 328 14.6
2005-05-02 07:22:06 51°18.394 2°51.475 328.7 13.8 329 14.7
2005-05-02 07:22:11 51°18.41 2°51.459 328.8 13.8 329 14.7
2005-05-02 07:22:17 51°18.429 2°51.443 328.9 13.8 329 14.9
2005-05-02 07:22:21 51°18.442 2°51.43 328.9 13.8 330 15
2005-05-02 07:22:27 51°18.462 2°51.411 328.8 13.8 330 15.1
2005-05-02 07:22:32 51°18.478 2°51.396 328.8 13.8 330 15.2
2005-05-02 07:22:37 51°18.495 2°51.381 328.7 13.8 330 15.2
2005-05-02 07:22:41 51°18.51 2°51.367 328.7 13.8 330 15.4
2005-05-02 07:22:46 51°18.526 2°51.352 328.4 13.8 330 15.4
2005-05-02 07:22:51 51°18.542 2°51.336 328 13.7 329 15.5
2005-05-02 07:22:57 51°18.56 2°51.319 328 13.7 329 15.7
2005-05-02 07:23:01 51°18.573 2°51.307 328.1 13.7 329 15.8
2005-05-02 07:23:07 51°18.593 2°51.288 328.3 13.7 329 15.8
2005-05-02 07:23:11 51°18.607 2°51.274 328.2 13.7 329 16
2005-05-02 07:23:17 51°18.625 2°51.257 327.7 13.7 328 16
2005-05-02 07:23:21 51°18.64 2°51.243 327.7 13.7 329 16
2005-05-02 07:23:27 51°18.658 2°51.225 328 13.7 329 16.1
2005-05-02 07:23:31 51°18.672 2°51.212 328.1 13.7 329 16.1
2005-05-02 07:23:37 51°18.69 2°51.194 328.3 13.7 330 16.2
2005-05-02 07:23:42 51°18.706 2°51.179 328.2 13.7 330 16.2
2005-05-02 07:23:46 51°18.721 2°51.165 328.1 13.7 329 16.3